createdAt,value
2023-01-30T00:00:06.515Z,32.43
2023-01-30T00:02:33.230Z,29.23
2023-01-30T00:05:00.419Z,27.80
2023-01-30T00:07:27.593Z,33.87
2023-01-30T00:09:54.231Z,30.20
2023-01-30T00:12:21.041Z,32.87
2023-01-30T00:14:47.709Z,31.80
2023-01-30T00:17:14.480Z,32.77
2023-01-30T00:19:41.248Z,32.03
2023-01-30T00:22:08.093Z,28.17
2023-01-30T00:24:34.840Z,32.40
2023-01-30T00:27:01.641Z,28.17
2023-01-30T00:29:28.388Z,30.30
2023-01-30T00:31:55.240Z,32.23
2023-01-30T00:34:21.951Z,33.73
2023-01-30T00:36:55.997Z,36.03
2023-01-30T00:39:36.584Z,29.63
2023-01-30T00:42:22.234Z,28.20
2023-01-30T00:45:15.092Z,27.40
2023-01-30T00:47:41.858Z,31.53
2023-01-30T00:50:09.489Z,29.83
2023-01-30T00:52:36.221Z,31.90
2023-01-30T00:55:03.026Z,28.47
2023-01-30T00:57:30.020Z,31.03
2023-01-30T00:59:57.492Z,26.70
2023-01-30T01:02:24.254Z,29.07
2023-01-30T01:05:00.539Z,26.13
2023-01-30T01:07:27.659Z,28.77
2023-01-30T01:09:56.052Z,31.83
2023-01-30T01:12:22.853Z,22.83
2023-01-30T01:14:49.493Z,30.00
2023-01-30T01:17:16.263Z,28.70
2023-01-30T01:19:42.982Z,27.90
2023-01-30T01:22:09.648Z,21.60
2023-01-30T01:24:36.328Z,21.73
2023-01-30T01:27:03.013Z,27.17
2023-01-30T01:29:29.636Z,29.63
2023-01-30T01:31:58.144Z,24.53
2023-01-30T01:34:24.925Z,22.17
2023-01-30T01:36:54.246Z,32.83
2023-01-30T01:39:21.644Z,25.20
2023-01-30T01:41:48.352Z,27.10
2023-01-30T01:44:17.618Z,23.53
2023-01-30T01:46:51.471Z,28.50
2023-01-30T01:49:30.825Z,29.03
2023-01-30T01:52:13.896Z,30.90
2023-01-30T01:54:51.716Z,31.03
2023-01-30T01:57:25.173Z,26.00
2023-01-30T01:59:57.459Z,24.27
2023-01-30T02:02:39.028Z,24.93
2023-01-30T02:05:07.597Z,28.47
2023-01-30T02:07:40.265Z,28.00
2023-01-30T02:10:14.047Z,25.60
2023-01-30T02:12:44.347Z,15.00
2023-01-30T02:15:11.931Z,30.60
2023-01-30T02:17:38.727Z,28.50
2023-01-30T02:20:14.905Z,30.00
2023-01-30T02:23:08.310Z,28.87
2023-01-30T02:25:39.532Z,25.30
2023-01-30T02:28:41.419Z,35.13
2023-01-30T02:31:39.119Z,25.90
2023-01-30T02:34:19.671Z,31.53
2023-01-30T02:37:02.674Z,27.43
2023-01-30T02:39:39.003Z,29.67
2023-01-30T02:42:28.696Z,31.37
2023-01-30T02:45:16.014Z,26.73
2023-01-30T02:47:54.993Z,29.17
2023-01-30T02:53:06.178Z,28.20
2023-01-30T02:55:32.896Z,29.80
2023-01-30T02:58:00.493Z,27.87
2023-01-30T03:00:42.250Z,35.17
2023-01-30T03:03:11.839Z,31.90
2023-01-30T03:06:01.002Z,25.80
2023-01-30T03:08:38.091Z,31.98
2023-01-30T03:11:10.148Z,28.58
2023-01-30T03:13:38.081Z,29.90
2023-01-30T03:16:32.010Z,30.13
2023-01-30T03:19:07.349Z,32.60
2023-01-30T03:21:34.187Z,29.10
2023-01-30T03:24:00.969Z,32.20
2023-01-30T03:26:33.219Z,29.00
2023-01-30T03:29:04.661Z,29.83
2023-01-30T03:31:31.455Z,27.57
2023-01-30T03:33:58.861Z,29.57
2023-01-30T03:36:25.818Z,26.97
2023-01-30T03:38:53.023Z,35.40
2023-01-30T03:41:19.759Z,33.17
2023-01-30T03:43:46.457Z,26.27
2023-01-30T03:46:16.060Z,29.70
2023-01-30T03:48:42.846Z,32.17
2023-01-30T03:51:09.536Z,29.30
2023-01-30T03:53:36.238Z,30.05
2023-01-30T03:56:03.087Z,31.07
2023-01-30T03:58:29.944Z,32.13
2023-01-30T04:01:00.121Z,26.02
2023-01-30T04:03:26.832Z,28.90
2023-01-30T04:05:53.584Z,25.87
2023-01-30T04:08:23.677Z,23.05
2023-01-30T04:10:50.507Z,26.55
2023-01-30T04:13:17.183Z,24.08
2023-01-30T04:15:43.983Z,26.10
2023-01-30T04:18:10.759Z,25.13
2023-01-30T04:23:06.728Z,25.95
2023-01-30T04:25:33.459Z,21.85
2023-01-30T04:28:00.288Z,24.00
2023-01-30T04:30:27.166Z,23.67
2023-01-30T04:32:53.922Z,19.50
2023-01-30T04:35:20.648Z,24.23
2023-01-30T04:37:47.274Z,24.02
2023-01-30T04:40:14.187Z,19.75
2023-01-30T04:42:41.035Z,24.48
2023-01-30T04:45:08.315Z,20.23
2023-01-30T04:47:35.489Z,21.80
2023-01-30T04:50:02.174Z,17.17
2023-01-30T04:52:28.871Z,22.52
2023-01-30T04:54:59.763Z,17.55
2023-01-30T04:57:26.426Z,23.38
2023-01-30T04:59:53.204Z,21.92
2023-01-30T05:02:21.814Z,23.25
2023-01-30T05:04:50.776Z,20.35
2023-01-30T05:07:17.950Z,20.33
2023-01-30T05:09:45.222Z,22.50
2023-01-30T05:12:14.935Z,18.40
2023-01-30T05:14:41.600Z,21.00
2023-01-30T05:17:08.490Z,22.42
2023-01-30T05:19:35.775Z,19.35
2023-01-30T05:22:02.812Z,20.90
2023-01-30T05:24:29.930Z,18.75
2023-01-30T05:26:56.634Z,20.35
2023-01-30T05:29:23.398Z,19.23
2023-01-30T05:31:52.610Z,21.73
2023-01-30T05:34:19.496Z,17.90
2023-01-30T05:36:46.234Z,23.38
2023-01-30T05:39:13.235Z,22.23
2023-01-30T05:41:40.403Z,18.55
2023-01-30T05:44:15.157Z,28.15
2023-01-30T05:46:41.985Z,24.13
2023-01-30T05:49:08.764Z,25.95
2023-01-30T05:51:35.446Z,19.77
2023-01-30T05:54:02.111Z,22.40
2023-01-30T05:56:35.392Z,24.63
2023-01-30T05:59:03.606Z,27.17
2023-01-30T06:01:36.616Z,26.38
2023-01-30T06:04:11.516Z,29.52
2023-01-30T06:06:39.098Z,23.65
2023-01-30T06:09:05.834Z,25.92
2023-01-30T06:11:32.655Z,25.38
2023-01-30T06:13:59.292Z,27.67
2023-01-30T06:16:26.386Z,23.10
2023-01-30T06:18:53.553Z,26.20
2023-01-30T06:21:20.565Z,24.90
2023-01-30T06:23:47.607Z,28.05
2023-01-30T06:26:14.497Z,29.67
2023-01-30T06:28:41.255Z,26.58
2023-01-30T06:31:08.758Z,26.92
2023-01-30T06:33:35.695Z,25.13
2023-01-30T06:36:02.464Z,14.90
2023-01-30T06:38:29.203Z,29.27
2023-01-30T06:40:56.001Z,29.02
2023-01-30T06:43:22.818Z,24.00
2023-01-30T06:45:49.531Z,17.10
2023-01-30T06:48:16.216Z,27.03
2023-01-30T06:50:44.243Z,20.88
2023-01-30T06:53:11.349Z,21.95
2023-01-30T06:58:06.285Z,22.57
2023-01-30T07:00:34.041Z,28.98
2023-01-30T07:03:00.816Z,32.25
2023-01-30T07:05:29.094Z,25.63
2023-01-30T07:07:56.660Z,23.23
2023-01-30T07:10:26.783Z,25.00
2023-01-30T07:12:53.755Z,28.23
2023-01-30T07:15:20.843Z,29.20
2023-01-30T07:17:48.331Z,24.77
2023-01-30T07:20:15.228Z,25.40
2023-01-30T07:22:42.017Z,24.25
2023-01-30T07:25:08.954Z,23.23
2023-01-30T07:27:35.796Z,25.07
2023-01-30T07:30:02.592Z,19.47
2023-01-30T07:32:29.642Z,27.80
2023-01-30T07:34:56.324Z,27.40
2023-01-30T07:37:23.022Z,26.30
2023-01-30T07:39:49.658Z,29.92
2023-01-30T07:42:16.409Z,13.55
2023-01-30T07:44:43.177Z,23.03
2023-01-30T07:47:10.018Z,17.52
2023-01-30T07:49:36.675Z,26.30
2023-01-30T07:52:03.369Z,26.10
2023-01-30T07:54:30.141Z,24.73
2023-01-30T07:56:56.831Z,26.02
2023-01-30T07:59:23.700Z,12.45
2023-01-30T08:01:50.357Z,22.40
2023-01-30T08:04:17.006Z,26.25
2023-01-30T08:06:43.650Z,22.08
2023-01-30T08:09:10.607Z,23.25
2023-01-30T08:14:03.975Z,26.10
2023-01-30T08:16:32.538Z,23.33
2023-01-30T08:18:59.384Z,23.70
2023-01-30T08:21:26.155Z,24.05
2023-01-30T08:23:52.985Z,22.80
2023-01-30T08:26:19.964Z,22.27
2023-01-30T08:28:46.727Z,25.63
2023-01-30T08:31:15.799Z,27.52
2023-01-30T08:33:43.286Z,27.88
2023-01-30T08:36:09.959Z,23.20
2023-01-30T08:41:08.477Z,26.83
2023-01-30T08:43:35.784Z,19.40
2023-01-30T08:46:02.811Z,30.02
2023-01-30T08:48:36.660Z,19.42
2023-01-30T08:51:03.620Z,19.42
2023-01-30T08:53:30.697Z,16.05
2023-01-30T08:55:57.341Z,16.63
2023-01-30T08:58:24.077Z,19.42
2023-01-30T09:00:51.006Z,18.45
2023-01-30T09:03:18.700Z,17.25
2023-01-30T09:05:54.155Z,17.02
2023-01-30T09:08:21.062Z,18.35
2023-01-30T09:10:47.737Z,17.35
2023-01-30T09:13:14.504Z,18.65
2023-01-30T09:15:42.693Z,14.27
2023-01-30T09:18:09.452Z,15.10
2023-01-30T09:20:36.270Z,15.65
2023-01-30T09:23:02.960Z,20.58
2023-01-30T09:25:29.562Z,17.63
2023-01-30T09:27:56.235Z,17.90
2023-01-30T09:30:23.004Z,15.13
2023-01-30T09:32:49.709Z,15.27
2023-01-30T09:35:16.480Z,15.80
2023-01-30T09:37:50.730Z,13.23
2023-01-30T09:40:21.322Z,14.85
2023-01-30T09:43:20.549Z,13.18
2023-01-30T09:46:01.865Z,13.85
2023-01-30T09:48:41.218Z,12.93
2023-01-30T09:51:39.239Z,12.00
2023-01-30T09:54:08.917Z,9.30
2023-01-30T09:56:35.574Z,7.60
2023-01-30T09:59:04.674Z,10.10
2023-01-30T10:01:39.339Z,8.40
2023-01-30T10:04:23.436Z,10.02
2023-01-30T10:07:02.396Z,9.13
2023-01-30T10:09:38.277Z,8.98
2023-01-30T10:12:15.492Z,6.65
2023-01-30T10:15:24.711Z,6.43
2023-01-30T10:18:03.103Z,6.60
2023-01-30T10:20:39.276Z,9.88
2023-01-30T10:23:39.271Z,7.40
2023-01-30T10:26:13.384Z,7.97
2023-01-30T10:29:06.739Z,6.70
2023-01-30T10:31:39.476Z,10.27
2023-01-30T10:34:25.031Z,9.55
2023-01-30T10:36:54.804Z,9.70
2023-01-30T10:39:38.738Z,8.20
2023-01-30T10:42:19.909Z,12.00
2023-01-30T10:44:47.987Z,10.05
2023-01-30T10:47:41.740Z,7.03
2023-01-30T10:50:20.743Z,9.30
2023-01-30T10:52:57.231Z,9.40
2023-01-30T10:55:38.663Z,10.55
2023-01-30T10:58:30.729Z,9.07
2023-01-30T11:01:07.130Z,8.63
2023-01-30T11:03:38.301Z,11.50
2023-01-30T11:06:17.386Z,9.38
2023-01-30T11:08:44.545Z,10.43
2023-01-30T11:11:30.205Z,9.48
2023-01-30T11:14:05.967Z,9.63
2023-01-30T11:16:39.234Z,8.13
2023-01-30T11:19:19.467Z,9.07
2023-01-30T11:21:52.603Z,6.97
2023-01-30T11:24:28.777Z,12.27
2023-01-30T11:26:59.880Z,7.18
2023-01-30T11:29:32.121Z,8.30
2023-01-30T11:32:05.489Z,10.15
2023-01-30T11:34:32.788Z,8.30
2023-01-30T11:37:30.672Z,8.02
2023-01-30T11:39:57.695Z,7.07
2023-01-30T11:42:31.873Z,6.85
2023-01-30T11:45:17.142Z,6.30
2023-01-30T11:47:57.836Z,7.78
2023-01-30T11:50:39.403Z,7.50
2023-01-30T11:53:07.570Z,6.68
2023-01-30T11:58:09.593Z,7.75
2023-01-30T12:00:39.549Z,9.43
2023-01-30T12:03:12.125Z,5.55
2023-01-30T12:05:42.731Z,9.55
2023-01-30T12:08:31.159Z,8.30
2023-01-30T12:11:02.697Z,3.70
2023-01-30T12:16:16.454Z,6.50
2023-01-30T12:19:05.529Z,5.32
2023-01-30T12:21:32.167Z,6.13
2023-01-30T12:24:18.606Z,3.83
2023-01-30T12:26:57.174Z,6.45
2023-01-30T12:29:34.664Z,5.82
2023-01-30T12:32:21.605Z,5.22
2023-01-30T12:34:48.573Z,5.03
2023-01-30T12:37:33.311Z,7.10
2023-01-30T12:40:26.483Z,6.82
2023-01-30T12:43:02.224Z,6.57
2023-01-30T12:45:33.077Z,5.93
2023-01-30T12:48:35.635Z,5.82
2023-01-30T12:51:15.729Z,6.15
2023-01-30T12:54:15.900Z,7.38
2023-01-30T12:57:10.520Z,6.47
2023-01-30T12:59:39.693Z,7.10
2023-01-30T13:02:26.428Z,4.75
2023-01-30T13:05:11.789Z,10.43
2023-01-30T13:10:31.743Z,7.80
2023-01-30T13:13:21.722Z,6.15
2023-01-30T13:16:10.167Z,4.40
2023-01-30T13:18:39.360Z,6.55
2023-01-30T13:21:39.317Z,4.35
2023-01-30T13:24:39.397Z,8.35
2023-01-30T13:27:14.010Z,5.93
2023-01-30T13:29:42.176Z,5.70
2023-01-30T13:32:35.821Z,8.45
2023-01-30T13:35:07.412Z,8.40
2023-01-30T13:37:34.699Z,9.00
2023-01-30T13:40:23.893Z,8.38
2023-01-30T13:43:04.874Z,8.75
2023-01-30T13:45:39.314Z,7.90
2023-01-30T13:48:21.046Z,13.48
2023-01-30T13:51:17.192Z,9.05
2023-01-30T13:53:53.756Z,9.52
2023-01-30T13:56:41.267Z,9.80
2023-01-30T13:59:24.657Z,17.08
2023-01-30T14:02:02.250Z,9.02
2023-01-30T14:04:45.290Z,7.22
2023-01-30T14:07:32.619Z,6.97
2023-01-30T14:10:05.135Z,7.10
2023-01-30T14:12:39.349Z,13.38
2023-01-30T14:15:15.193Z,9.20
2023-01-30T14:18:21.676Z,10.85
2023-01-30T14:20:50.785Z,8.68
2023-01-30T14:23:28.155Z,7.05
2023-01-30T14:25:59.000Z,7.75
2023-01-30T14:28:31.594Z,5.32
2023-01-30T14:31:02.895Z,6.32
2023-01-30T14:33:36.274Z,4.38
2023-01-30T14:36:02.941Z,4.78
2023-01-30T14:38:31.263Z,5.03
2023-01-30T14:41:00.875Z,5.80
2023-01-30T14:43:39.804Z,7.32
2023-01-30T14:46:28.164Z,6.18
2023-01-30T14:49:05.306Z,6.78
2023-01-30T14:51:39.633Z,6.72
2023-01-30T14:54:13.324Z,13.40
2023-01-30T14:56:46.362Z,8.10
2023-01-30T14:59:15.822Z,10.32
2023-01-30T15:01:57.984Z,6.18
2023-01-30T15:04:27.356Z,11.13
2023-01-30T15:06:55.271Z,9.77
2023-01-30T15:09:26.414Z,10.38
2023-01-30T15:12:30.751Z,12.70
2023-01-30T15:15:18.659Z,16.83
2023-01-30T15:18:08.219Z,16.08
2023-01-30T15:20:39.809Z,11.88
2023-01-30T15:23:35.803Z,8.20
2023-01-30T15:26:25.210Z,7.25
2023-01-30T15:29:10.584Z,6.95
2023-01-30T15:34:18.938Z,8.48
2023-01-30T15:36:45.596Z,8.60
2023-01-30T15:39:23.997Z,11.98
2023-01-30T15:41:53.000Z,11.30
2023-01-30T15:44:40.435Z,7.57
2023-01-30T15:47:30.428Z,9.75
2023-01-30T15:50:01.355Z,8.57
2023-01-30T15:52:39.430Z,7.55
2023-01-30T15:55:08.016Z,10.15
2023-01-30T15:57:38.483Z,9.75
2023-01-30T16:00:11.816Z,8.45
2023-01-30T16:02:39.458Z,5.45
2023-01-30T16:05:18.817Z,4.78
2023-01-30T16:07:48.204Z,7.18
2023-01-30T16:10:23.243Z,8.32
2023-01-30T16:12:53.112Z,7.88
2023-01-30T16:15:39.466Z,9.65
2023-01-30T16:18:23.017Z,6.78
2023-01-30T16:21:01.503Z,6.97
2023-01-30T16:23:39.423Z,6.53
2023-01-30T16:26:09.383Z,5.65
2023-01-30T16:28:36.299Z,5.70
2023-01-30T16:31:08.407Z,6.40
2023-01-30T16:33:39.654Z,7.40
2023-01-30T16:36:21.558Z,8.55
2023-01-30T16:38:51.339Z,9.50
2023-01-30T16:41:39.635Z,7.57
2023-01-30T16:44:16.909Z,6.47
2023-01-30T16:47:02.658Z,13.30
2023-01-30T16:49:39.498Z,8.80
2023-01-30T16:52:18.669Z,9.35
2023-01-30T16:54:49.572Z,7.72
2023-01-30T17:00:17.923Z,9.95
2023-01-30T17:02:51.774Z,10.38
2023-01-30T17:05:20.804Z,12.80
2023-01-30T17:07:49.646Z,8.68
2023-01-30T17:10:28.751Z,14.48
2023-01-30T17:12:56.533Z,8.95
2023-01-30T17:15:27.967Z,8.23
2023-01-30T17:17:54.687Z,8.15
2023-01-30T17:20:21.863Z,7.07
2023-01-30T17:22:54.744Z,10.48
2023-01-30T17:25:31.943Z,8.50
2023-01-30T17:27:59.538Z,8.52
2023-01-30T17:30:26.167Z,12.60
2023-01-30T17:32:52.918Z,9.95
2023-01-30T17:35:20.098Z,14.18
2023-01-30T17:37:59.722Z,12.57
2023-01-30T17:43:13.327Z,12.55
2023-01-30T17:45:40.483Z,11.50
2023-01-30T17:48:07.660Z,9.38
2023-01-30T17:50:35.773Z,8.63
2023-01-30T17:53:03.257Z,11.38
2023-01-30T17:55:30.184Z,11.50
2023-01-30T17:57:56.946Z,8.75
2023-01-30T18:00:24.391Z,14.25
2023-01-30T18:02:51.063Z,20.75
2023-01-30T18:05:17.762Z,17.98
2023-01-30T18:07:46.499Z,12.43
2023-01-30T18:10:19.813Z,13.02
2023-01-30T18:12:49.595Z,11.60
2023-01-30T18:15:16.758Z,14.50
2023-01-30T18:17:47.428Z,9.98
2023-01-30T18:20:19.967Z,10.80
2023-01-30T18:22:47.203Z,7.22
2023-01-30T18:25:15.100Z,13.07
2023-01-30T18:27:44.292Z,17.88
2023-01-30T18:30:17.726Z,24.73
2023-01-30T18:32:52.993Z,16.30
2023-01-30T18:35:21.052Z,15.23
2023-01-30T18:37:47.809Z,12.63
2023-01-30T18:40:15.332Z,17.50
2023-01-30T18:42:42.484Z,12.43
2023-01-30T18:45:09.842Z,11.05
2023-01-30T18:47:36.696Z,7.05
2023-01-30T18:50:04.573Z,6.53
2023-01-30T18:52:31.566Z,13.95
2023-01-30T18:54:58.622Z,16.45
2023-01-30T18:57:25.353Z,9.15
2023-01-30T18:59:57.566Z,14.00
2023-01-30T19:02:24.346Z,12.35
2023-01-30T19:04:51.386Z,19.35
2023-01-30T19:07:18.110Z,12.30
2023-01-30T19:09:44.880Z,7.68
2023-01-30T19:12:30.149Z,10.70
2023-01-30T19:14:57.010Z,12.70
2023-01-30T19:17:26.442Z,16.40
2023-01-30T19:19:57.743Z,20.08
2023-01-30T19:22:30.562Z,19.45
2023-01-30T19:24:57.422Z,14.50
2023-01-30T19:27:24.608Z,12.98
2023-01-30T19:29:51.518Z,10.30
2023-01-30T19:32:18.688Z,15.75
2023-01-30T19:34:50.156Z,11.32
2023-01-30T19:37:20.819Z,12.80
2023-01-30T19:39:47.647Z,14.45
2023-01-30T19:42:22.797Z,17.02
2023-01-30T19:44:53.426Z,14.70
2023-01-30T19:47:22.255Z,11.95
2023-01-30T19:49:49.492Z,14.02
2023-01-30T19:52:16.598Z,14.52
2023-01-30T19:54:47.700Z,14.88
2023-01-30T19:57:14.516Z,16.52
2023-01-30T19:59:41.381Z,15.20
2023-01-30T20:02:12.897Z,16.42
2023-01-30T20:04:43.058Z,9.88
2023-01-30T20:07:13.695Z,13.90
2023-01-30T20:09:40.618Z,10.82
2023-01-30T20:12:07.817Z,10.27
2023-01-30T20:14:34.604Z,8.10
2023-01-30T20:17:01.440Z,12.65
2023-01-30T20:19:32.510Z,8.85
2023-01-30T20:22:00.090Z,16.25
2023-01-30T20:24:27.191Z,12.48
2023-01-30T20:26:54.245Z,14.95
2023-01-30T20:29:30.436Z,14.45
2023-01-30T20:31:58.573Z,11.27
2023-01-30T20:34:25.330Z,14.35
2023-01-30T20:36:52.781Z,15.13
2023-01-30T20:39:21.159Z,13.77
2023-01-30T20:41:48.167Z,11.60
2023-01-30T20:44:15.533Z,14.07
2023-01-30T20:46:46.303Z,10.73
2023-01-30T20:49:16.012Z,18.23
2023-01-30T20:51:43.286Z,17.65
2023-01-30T20:54:14.944Z,18.50
2023-01-30T20:56:47.893Z,11.60
2023-01-30T20:59:17.727Z,16.55
2023-01-30T21:01:46.097Z,14.48
2023-01-30T21:04:14.922Z,23.05
2023-01-30T21:06:45.692Z,15.10
2023-01-30T21:09:24.348Z,14.57
2023-01-30T21:11:53.282Z,19.57
2023-01-30T21:14:21.680Z,15.55
2023-01-30T21:16:48.867Z,15.93
2023-01-30T21:19:17.641Z,13.85
2023-01-30T21:21:51.167Z,19.10
2023-01-30T21:24:26.111Z,10.25
2023-01-30T21:26:53.284Z,12.85
2023-01-30T21:29:23.220Z,16.25
2023-01-30T21:31:58.928Z,12.85
2023-01-30T21:34:29.325Z,11.90
2023-01-30T21:37:14.260Z,14.25
2023-01-30T21:40:02.158Z,18.77
2023-01-30T21:42:40.250Z,20.48
2023-01-30T21:45:13.233Z,12.68
2023-01-30T21:47:39.994Z,12.35
2023-01-30T21:50:07.260Z,14.52
2023-01-30T21:52:33.987Z,18.70
2023-01-30T21:55:00.832Z,17.75
2023-01-30T21:57:27.571Z,15.13
2023-01-30T21:59:54.255Z,10.40
2023-01-30T22:02:20.981Z,16.02
2023-01-30T22:04:47.720Z,14.57
2023-01-30T22:07:14.640Z,15.10
2023-01-30T22:09:41.357Z,17.38
2023-01-30T22:12:08.420Z,14.75
2023-01-30T22:14:36.436Z,13.30
2023-01-30T22:17:03.191Z,16.92
2023-01-30T22:19:35.674Z,14.93
2023-01-30T22:22:03.103Z,21.67
2023-01-30T22:24:30.033Z,12.05
2023-01-30T22:26:56.765Z,11.68
2023-01-30T22:29:23.463Z,15.88
2023-01-30T22:31:50.155Z,15.32
2023-01-30T22:34:17.266Z,18.95
2023-01-30T22:36:43.967Z,15.55
2023-01-30T22:39:10.821Z,14.63
2023-01-30T22:44:05.604Z,19.95
2023-01-30T22:46:35.016Z,15.60
2023-01-30T22:49:03.870Z,15.00
2023-01-30T22:51:33.622Z,17.98
2023-01-30T22:54:03.357Z,15.90
2023-01-30T22:56:39.817Z,13.63
2023-01-30T22:59:07.186Z,18.30
2023-01-30T23:01:37.179Z,13.75
2023-01-30T23:04:24.261Z,13.43
2023-01-30T23:06:52.135Z,10.18
2023-01-30T23:09:21.768Z,18.23
2023-01-30T23:12:11.009Z,18.73
2023-01-30T23:14:39.622Z,15.35
2023-01-30T23:17:25.580Z,13.65
2023-01-30T23:19:55.612Z,13.25
2023-01-30T23:22:22.873Z,12.55
2023-01-30T23:24:51.512Z,19.98
2023-01-30T23:27:19.093Z,20.95
2023-01-30T23:29:45.847Z,20.00
2023-01-30T23:32:12.901Z,15.65
2023-01-30T23:34:43.020Z,16.15
2023-01-30T23:37:09.777Z,15.93
2023-01-30T23:39:36.508Z,17.52
2023-01-30T23:42:03.384Z,14.23
2023-01-30T23:44:30.223Z,12.55
2023-01-30T23:47:00.518Z,16.60
2023-01-30T23:49:27.174Z,16.73
2023-01-30T23:51:55.276Z,28.98
2023-01-30T23:54:21.977Z,14.85
2023-01-30T23:56:48.712Z,15.98
2023-01-30T23:59:15.407Z,18.73
